Time;durP1;ratioP1;P1;durP2;ratioP2;P2;SDS_P1;SDS_P2;PMS_P1;PMS_P2;Temp;Humidity;BMP_temperature;BMP_pressure;BME280_temperature;BME280_humidity;BME280_pressure;Samples;Min_cycle;Max_cycle;Signal;HPM_P1;HPM_P2
2022/12/14 11:18:41;;;;;;;24.63;10.70;;;-6.10;99.90;;;;;;6061815;22;3097150;-69
2022/12/14 11:21:15;;;;;;;27.63;9.77;;;-6.10;99.90;;;;;;6189683;23;20016;-69
2022/12/14 11:23:44;;;;;;;25.83;10.32;;;-6.00;99.90;;;;;;6190082;23;20025;-69
2022/12/14 11:26:35;;;;;;;25.73;9.15;;;-6.00;99.90;;;;;;6189736;23;20119;-69
2022/12/14 11:29:05;;;;;;;21.52;8.30;;;-6.00;99.90;;;;;;6188398;23;20102;-69
2022/12/14 11:31:45;;;;;;;21.40;8.43;;;-5.90;99.90;;;;;;6190395;23;20354;-69
2022/12/14 11:34:40;;;;;;;26.73;8.77;;;-5.90;99.90;;;;;;6160452;23;20005;-71
2022/12/14 11:37:27;;;;;;;19.40;8.77;;;-5.80;99.90;;;;;;6159900;23;20065;-72
2022/12/14 11:40:06;;;;;;;18.88;8.20;;;-5.80;99.90;;;;;;6160215;23;20005;-71
2022/12/14 11:42:44;;;;;;;14.63;7.43;;;-5.70;99.90;;;;;;6159831;23;20069;-70
2022/12/14 11:45:36;;;;;;;19.50;7.55;;;-5.60;99.90;;;;;;6158484;23;20010;-69
2022/12/14 11:48:16;;;;;;;25.40;9.90;;;-5.60;99.90;;;;;;6158357;23;20009;-70
2022/12/14 11:51:11;;;;;;;19.48;8.63;;;-5.60;99.90;;;;;;6160412;23;20001;-69
2022/12/14 11:53:39;;;;;;;29.33;13.63;;;-5.50;99.90;;;;;;6159939;23;20341;-70
2022/12/14 11:56:12;;;;;;;21.88;8.60;;;-5.40;99.90;;;;;;6160062;23;20377;-68
2022/12/14 11:58:52;;;;;;;16.02;6.40;;;-5.30;99.90;;;;;;6159779;23;20005;-68
2022/12/14 12:01:25;;;;;;;20.25;7.80;;;-5.10;99.90;;;;;;6160413;23;20022;-68
2022/12/14 12:03:56;;;;;;;17.00;7.43;;;-5.00;99.90;;;;;;6159889;23;20006;-68
2022/12/14 12:06:29;;;;;;;18.30;7.28;;;-5.00;99.90;;;;;;6159707;23;20375;-68
2022/12/14 12:09:30;;;;;;;21.13;9.02;;;-4.80;99.90;;;;;;6160439;23;19998;-68
2022/12/14 12:11:58;;;;;;;35.38;12.48;;;-4.80;99.90;;;;;;6159170;23;20354;-68
2022/12/14 12:14:34;;;;;;;29.63;10.13;;;-4.80;99.90;;;;;;6161047;23;20014;-68
2022/12/14 12:17:17;;;;;;;17.33;7.53;;;-4.70;99.90;;;;;;6160009;23;20326;-68
2022/12/14 12:19:50;;;;;;;16.20;8.30;;;-4.60;99.90;;;;;;6161449;23;20009;-68
2022/12/14 12:22:19;;;;;;;16.40;8.07;;;-4.50;99.90;;;;;;6161340;23;20002;-68
2022/12/14 12:24:59;;;;;;;15.95;7.90;;;-4.50;99.90;;;;;;6161597;23;20040;-69
2022/12/14 12:27:30;;;;;;;15.60;7.45;;;-4.50;99.90;;;;;;6161391;23;20366;-69
2022/12/14 12:30:31;;;;;;;19.63;9.13;;;-4.40;99.90;;;;;;6161227;23;20046;-68
2022/12/14 12:33:29;;;;;;;18.00;8.20;;;-4.40;99.90;;;;;;6161955;23;20001;-69
2022/12/14 12:36:03;;;;;;;17.75;7.68;;;-4.40;99.90;;;;;;6161017;23;20036;-67
2022/12/14 12:38:37;;;;;;;16.83;7.57;;;-4.50;99.90;;;;;;6162135;23;20088;-69
2022/12/14 12:41:28;;;;;;;17.88;7.93;;;-4.50;99.90;;;;;;6161886;23;20426;-68
2022/12/14 12:44:44;;;;;;;20.85;8.45;;;-4.50;99.90;;;;;;6159877;23;20393;-69
2022/12/14 12:47:27;;;;;;;18.10;8.13;;;-4.50;99.90;;;;;;6136141;23;20005;-69
2022/12/14 12:50:00;;;;;;;24.92;8.73;;;-4.50;99.90;;;;;;6161135;23;20445;-68
2022/12/14 12:52:49;;;;;;;22.90;11.25;;;-4.40;99.90;;;;;;6161834;23;20339;-68
2022/12/14 12:55:23;;;;;;;23.70;10.13;;;-4.40;99.90;;;;;;6161673;23;20029;-68
2022/12/14 12:57:57;;;;;;;22.63;10.50;;;-4.50;99.90;;;;;;6161247;23;20005;-68
2022/12/14 13:00:27;;;;;;;15.95;7.57;;;-4.50;99.90;;;;;;6161035;23;20001;-68
2022/12/14 13:03:31;;;;;;;15.38;7.70;;;-4.40;99.90;;;;;;6160965;23;20076;-68
2022/12/14 13:06:15;;;;;;;15.95;7.15;;;-4.30;99.90;;;;;;6160991;23;20012;-68
2022/12/14 13:08:45;;;;;;;16.98;6.68;;;-4.10;99.90;;;;;;6159841;23;20278;-68
2022/12/14 13:11:32;;;;;;;16.10;6.72;;;-4.00;99.90;;;;;;6161634;23;20351;-68
2022/12/14 13:14:21;;;;;;;17.25;6.40;;;-4.00;99.90;;;;;;6159460;23;20421;-68
2022/12/14 13:16:50;;;;;;;12.27;6.25;;;-3.90;99.90;;;;;;6159289;23;20247;-69
2022/12/14 13:19:44;;;;;;;14.48;7.25;;;-3.90;99.90;;;;;;6159774;23;20001;-68
2022/12/14 13:22:14;;;;;;;21.35;7.68;;;-3.90;99.90;;;;;;6161484;23;20006;-68
2022/12/14 13:24:45;;;;;;;16.52;6.97;;;-3.80;99.90;;;;;;6160773;23;20006;-68
2022/12/14 13:27:40;;;;;;;12.63;5.68;;;-3.70;99.90;;;;;;6161225;23;20385;-68
2022/12/14 13:30:28;;;;;;;16.48;6.70;;;-3.70;99.90;;;;;;6161129;23;20005;-68
2022/12/14 13:33:01;;;;;;;11.32;5.07;;;-3.60;99.90;;;;;;6160996;23;20067;-68
2022/12/14 13:35:37;;;;;;;15.50;6.53;;;-3.60;99.90;;;;;;6161426;23;20001;-68
2022/12/14 13:38:29;;;;;;;12.68;5.20;;;-3.60;99.90;;;;;;6160820;23;20001;-68
2022/12/14 13:41:33;;;;;;;14.40;5.47;;;-3.60;99.90;;;;;;6161456;23;20009;-68
2022/12/14 13:44:39;;;;;;;13.15;5.15;;;-3.50;99.90;;;;;;6161484;23;20009;-68
2022/12/14 13:47:19;;;;;;;11.68;4.65;;;-3.50;99.90;;;;;;6160489;23;20005;-69
2022/12/14 13:49:58;;;;;;;8.38;4.53;;;-3.60;99.90;;;;;;6161232;23;20048;-68
2022/12/14 13:52:44;;;;;;;10.50;5.38;;;-3.60;99.90;;;;;;6160589;23;20380;-68
2022/12/14 13:55:32;;;;;;;8.52;4.65;;;-3.60;99.90;;;;;;6160864;23;20002;-68
2022/12/14 13:58:29;;;;;;;11.75;4.78;;;-3.60;99.90;;;;;;6160631;23;20072;-68
2022/12/14 14:00:58;;;;;;;;;;;-3.60;99.90;;;;;;6161669;23;19998;-68
2022/12/14 14:03:35;;;;;;;6.90;3.40;;;-3.70;99.90;;;;;;6160630;23;19904;-69
2022/12/14 14:06:13;;;;;;;6.88;3.22;;;-3.70;99.90;;;;;;6161105;23;19997;-68
2022/12/14 14:08:42;;;;;;;9.95;4.20;;;-3.70;99.90;;;;;;6160390;23;20009;-68
2022/12/14 14:11:23;;;;;;;7.82;4.00;;;-3.80;99.90;;;;;;6160373;23;19998;-68
2022/12/14 14:14:17;;;;;;;8.73;4.35;;;-3.90;99.90;;;;;;6161058;23;20002;-70
2022/12/14 14:16:55;;;;;;;10.30;3.90;;;-4.00;99.90;;;;;;6160325;23;20021;-68
2022/12/14 14:19:24;;;;;;;14.27;4.78;;;-4.10;99.90;;;;;;6160353;23;20005;-68
2022/12/14 14:22:10;;;;;;;9.85;4.38;;;-4.20;99.90;;;;;;6160283;23;20136;-68
2022/12/14 14:25:01;;;;;;;9.32;4.45;;;-4.20;99.90;;;;;;6161133;23;20005;-68
2022/12/14 14:27:50;;;;;;;12.00;3.65;;;-4.30;99.90;;;;;;6160189;23;20017;-68
2022/12/14 14:30:49;;;;;;;12.00;4.57;;;-4.40;99.90;;;;;;6160226;23;20488;-68
2022/12/14 14:33:49;;;;;;;9.57;3.83;;;-4.40;99.90;;;;;;6160997;23;20048;-68
2022/12/14 14:36:35;;;;;;;11.23;4.72;;;-4.40;99.90;;;;;;6160183;23;20009;-68
2022/12/14 14:39:25;;;;;;;8.77;4.18;;;-4.40;99.90;;;;;;6160522;23;20006;-68
2022/12/14 14:41:54;;;;;;;12.80;4.80;;;-4.50;99.90;;;;;;6158797;23;20002;-69
2022/12/14 14:44:40;;;;;;;11.43;4.97;;;-4.50;99.90;;;;;;6160129;23;20001;-68
2022/12/14 14:47:39;;;;;;;11.02;4.70;;;-4.60;99.90;;;;;;6160075;23;20005;-68
2022/12/14 14:50:16;;;;;;;9.48;4.10;;;-4.60;99.90;;;;;;6160415;23;20012;-68
2022/12/14 14:52:44;;;;;;;8.57;3.70;;;-4.70;99.90;;;;;;6160482;23;20266;-68
2022/12/14 14:55:34;;;;;;;9.55;4.45;;;-4.80;99.90;;;;;;6160818;23;20037;-68
2022/12/14 14:58:21;;;;;;;10.75;4.13;;;-4.90;99.90;;;;;;6145298;23;20028;-68
2022/12/14 15:00:52;;;;;;;7.00;3.53;;;-5.00;99.90;;;;;;6160719;23;20002;-68
2022/12/14 15:03:27;;;;;;;7.82;4.53;;;-5.10;99.90;;;;;;6159898;23;20369;-68
2022/12/14 15:05:56;;;;;;;17.65;5.03;;;-5.20;99.90;;;;;;6160714;23;20005;-68
2022/12/14 15:08:37;;;;;;;13.27;4.68;;;-5.30;99.90;;;;;;6160218;23;20369;-68
2022/12/14 15:11:18;;;;;;;11.73;4.47;;;-5.30;99.90;;;;;;6160035;23;20016;-68
2022/12/14 15:14:01;;;;;;;13.40;4.82;;;-5.40;99.90;;;;;;6159946;23;20028;-68
2022/12/14 15:16:49;;;;;;;11.90;4.22;;;-5.40;99.90;;;;;;6159930;23;20008;-69
2022/12/14 15:19:32;;;;;;;8.82;3.92;;;-5.60;99.90;;;;;;6158782;23;20014;-69
2022/12/14 15:22:05;;;;;;;12.30;5.18;;;-5.70;99.90;;;;;;6160223;23;20004;-69
2022/12/14 15:24:41;;;;;;;12.93;5.50;;;-5.80;99.90;;;;;;6158636;23;20378;-68
2022/12/14 15:27:14;;;;;;;10.25;4.03;;;-5.90;99.90;;;;;;6160551;23;20041;-69
2022/12/14 15:29:45;;;;;;;13.77;5.05;;;-6.00;99.90;;;;;;6160774;23;20005;-69
2022/12/14 15:32:17;;;;;;;13.30;4.93;;;-6.10;99.90;;;;;;6159771;23;20088;-69
2022/12/14 15:34:56;;;;;;;12.57;5.47;;;-6.20;99.90;;;;;;6160145;23;20002;-69
2022/12/14 15:37:45;;;;;;;19.27;6.55;;;-6.30;99.90;;;;;;6159862;23;20349;-68
2022/12/14 15:40:23;;;;;;;17.15;6.53;;;-6.40;99.90;;;;;;6159808;23;20049;-68
2022/12/14 15:42:53;;;;;;;8.63;4.03;;;-6.50;99.90;;;;;;6160690;23;20005;-70
2022/12/14 15:45:25;;;;;;;19.83;5.85;;;-6.50;99.90;;;;;;6158458;23;20025;-70
2022/12/14 15:47:53;;;;;;;10.38;4.20;;;-6.60;99.90;;;;;;6160845;23;20434;-69
2022/12/14 15:50:31;;;;;;;12.57;5.15;;;-6.70;99.90;;;;;;6162041;23;20002;-70
2022/12/14 15:53:13;;;;;;;10.57;5.05;;;-6.70;99.90;;;;;;6160503;23;20005;-70
2022/12/14 15:55:42;;;;;;;12.13;5.07;;;-6.70;99.90;;;;;;6162255;23;20370;-69
2022/12/14 15:58:37;;;;;;;14.38;4.82;;;-6.80;99.90;;;;;;6162284;23;20442;-69
2022/12/14 16:01:12;;;;;;;14.60;5.15;;;-6.90;99.90;;;;;;6162009;23;20320;-70
2022/12/14 16:03:44;;;;;;;11.15;5.50;;;-7.00;99.90;;;;;;6162153;23;20056;-69
2022/12/14 16:06:13;;;;;;;11.77;4.60;;;-7.10;99.90;;;;;;6161556;23;20036;-70
2022/12/14 16:08:50;;;;;;;14.52;6.07;;;-7.20;99.90;;;;;;6162603;23;20025;-69
2022/12/14 16:11:44;;;;;;;11.73;5.35;;;-7.20;99.90;;;;;;6161821;23;20294;-70
2022/12/14 16:14:31;;;;;;;20.60;8.68;;;-7.30;99.90;;;;;;6148194;23;20064;-70
2022/12/14 16:16:59;;;;;;;22.30;8.18;;;-7.30;99.90;;;;;;6159764;23;20012;-70
2022/12/14 16:19:34;;;;;;;38.35;13.98;;;-7.40;99.90;;;;;;6161413;23;20005;-70
2022/12/14 16:22:26;;;;;;;46.97;14.48;;;-7.40;99.90;;;;;;6160028;23;20311;-70
2022/12/14 16:25:15;;;;;;;77.70;19.92;;;-7.40;99.90;;;;;;6162088;23;20263;-70
2022/12/14 16:27:50;;;;;;;22.17;7.45;;;-7.40;99.90;;;;;;6161085;23;20379;-70
2022/12/14 16:30:32;;;;;;;13.02;6.18;;;-7.40;99.90;;;;;;6159990;23;20009;-70
2022/12/14 16:33:16;;;;;;;14.35;5.57;;;-7.40;99.90;;;;;;6161423;23;20387;-70
2022/12/14 16:35:46;;;;;;;30.40;8.88;;;-7.50;99.90;;;;;;6159854;23;20283;-70
2022/12/14 16:38:16;;;;;;;41.40;12.18;;;-7.60;99.90;;;;;;6160236;23;20002;-70
2022/12/14 16:41:00;;;;;;;10.82;5.78;;;-7.60;99.90;;;;;;6159843;23;20367;-70
2022/12/14 16:43:41;;;;;;;11.45;5.28;;;-7.70;99.90;;;;;;6161454;23;20076;-70
2022/12/14 16:46:12;;;;;;;15.43;6.15;;;-7.70;99.90;;;;;;6161855;23;20266;-70
2022/12/14 16:48:47;;;;;;;15.75;5.93;;;-7.70;99.90;;;;;;6161140;23;20422;-70
2022/12/14 16:51:21;;;;;;;18.95;5.03;;;-7.80;99.90;;;;;;6161866;23;20005;-70
2022/12/14 16:53:52;;;;;;;25.42;7.28;;;-7.80;99.90;;;;;;6161725;23;19997;-70
2022/12/14 16:56:33;;;;;;;24.77;7.50;;;-7.90;99.90;;;;;;6161516;23;20021;-70
2022/12/14 16:59:20;;;;;;;31.70;8.88;;;-7.90;99.90;;;;;;6160774;23;20002;-70
2022/12/14 17:01:48;;;;;;;32.15;9.63;;;-7.90;99.90;;;;;;6160959;23;20104;-70
2022/12/14 17:04:18;;;;;;;20.45;6.90;;;-8.00;99.90;;;;;;6160043;23;20041;-72
2022/12/14 17:06:50;;;;;;;12.60;6.07;;;-8.10;99.90;;;;;;6161565;23;20005;-72
2022/12/14 17:09:25;;;;;;;17.15;5.68;;;-8.10;99.90;;;;;;6161339;23;20036;-75
2022/12/14 17:11:55;;;;;;;14.50;5.93;;;-8.10;99.90;;;;;;6159583;23;20001;-69
2022/12/14 17:14:24;;;;;;;16.55;6.15;;;-8.10;99.90;;;;;;6159627;23;20016;-73
2022/12/14 17:17:00;;;;;;;13.25;6.45;;;-8.20;99.90;;;;;;6161285;23;20001;-70
2022/12/14 17:19:39;;;;;;;21.83;8.00;;;-8.20;99.90;;;;;;6160918;23;20075;-82
2022/12/14 17:22:23;;;;;;;17.05;7.50;;;-8.20;99.90;;;;;;6157410;23;20016;-76
2022/12/14 17:24:51;;;;;;;28.10;9.60;;;-8.30;99.90;;;;;;6151732;23;20010;-68
2022/12/14 17:27:21;;;;;;;39.05;12.70;;;-8.30;99.90;;;;;;6161884;23;20001;-68
2022/12/14 17:29:49;;;;;;;15.73;6.07;;;-8.30;99.90;;;;;;6160775;23;20001;-68
2022/12/14 17:32:17;;;;;;;15.90;6.55;;;-8.30;99.90;;;;;;6161334;23;20001;-68
2022/12/14 17:34:46;;;;;;;17.98;8.77;;;-8.30;99.90;;;;;;6160560;23;20043;-70
2022/12/14 17:37:21;;;;;;;21.13;7.82;;;-8.40;99.90;;;;;;6160801;23;20001;-68
2022/12/14 17:39:49;;;;;;;17.02;6.47;;;-8.40;99.90;;;;;;6159357;23;20009;-68
2022/12/14 17:42:20;;;;;;;36.30;11.60;;;-8.40;99.90;;;;;;6159452;23;20001;-68
2022/12/14 17:44:58;;;;;;;20.70;9.52;;;-8.40;99.90;;;;;;6160582;23;20247;-68
2022/12/14 17:47:26;;;;;;;17.77;9.63;;;-8.40;99.90;;;;;;6161238;23;20032;-68
2022/12/14 17:49:54;;;;;;;31.00;10.52;;;-8.50;99.90;;;;;;6160609;23;20068;-68
2022/12/14 17:52:30;;;;;;;49.05;17.30;;;-8.50;99.90;;;;;;6160646;23;20002;-68
2022/12/14 17:54:58;;;;;;;39.17;15.60;;;-8.50;99.90;;;;;;6159219;23;20378;-68
2022/12/14 17:57:26;;;;;;;23.25;9.50;;;-8.50;99.90;;;;;;6161076;23;20029;-68
2022/12/14 18:00:58;;;;;;;23.42;10.02;;;-8.50;99.90;;;;;;6160831;23;20270;-68
2022/12/14 18:02:41;;;;;;;21.50;7.63;;;-8.50;99.90;;;;;;6160089;23;20005;-68
2022/12/14 18:05:18;;;;;;;16.98;6.68;;;-8.50;99.90;;;;;;6161375;23;20028;-68
2022/12/14 18:07:46;;;;;;;16.80;7.38;;;-8.50;99.90;;;;;;6160684;23;20001;-68
2022/12/14 18:10:16;;;;;;;15.98;7.03;;;-8.50;99.90;;;;;;6160847;23;20008;-68
2022/12/14 18:12:44;;;;;;;16.23;6.35;;;-8.50;99.90;;;;;;6160163;23;20069;-68
2022/12/14 18:15:24;;;;;;;16.73;7.28;;;-8.60;99.90;;;;;;6161030;23;20005;-68
2022/12/14 18:17:52;;;;;;;17.48;8.90;;;-8.60;99.90;;;;;;6160168;23;20283;-68
2022/12/14 18:20:22;;;;;;;17.13;6.88;;;-8.60;99.90;;;;;;6158874;23;20400;-68
2022/12/14 18:22:49;;;;;;;27.58;10.30;;;-8.60;99.90;;;;;;6160326;23;20012;-68
2022/12/14 18:25:36;;;;;;;28.10;9.82;;;-8.70;99.90;;;;;;6134517;23;20012;-68
2022/12/14 18:28:05;;;;;;;28.42;11.73;;;-8.70;99.90;;;;;;6160248;23;20012;-68
2022/12/14 18:30:35;;;;;;;36.92;14.00;;;-8.70;99.90;;;;;;6160232;23;20009;-68
2022/12/14 18:33:02;;;;;;;29.13;12.40;;;-8.70;99.90;;;;;;6160528;23;20426;-68
2022/12/14 18:35:32;;;;;;;24.80;8.93;;;-8.70;99.90;;;;;;6160233;23;20005;-68
2022/12/14 18:37:59;;;;;;;27.63;9.52;;;-8.70;99.90;;;;;;6160142;23;20006;-68
2022/12/14 18:40:29;;;;;;;23.73;9.40;;;-8.70;99.90;;;;;;6160838;23;20001;-68
2022/12/14 18:42:57;;;;;;;23.55;9.35;;;-8.70;99.90;;;;;;6160399;23;20013;-68
2022/12/14 18:45:28;;;;;;;23.05;8.80;;;-8.70;99.90;;;;;;6158761;23;20005;-68
2022/12/14 18:47:57;;;;;;;27.23;8.73;;;-8.70;99.90;;;;;;6158760;23;20009;-68
2022/12/14 18:50:25;;;;;;;19.55;9.57;;;-8.80;99.90;;;;;;6158845;23;20008;-68
2022/12/14 18:52:54;;;;;;;22.63;7.97;;;-8.80;99.90;;;;;;6158951;23;20006;-68
2022/12/14 18:55:32;;;;;;;31.23;12.55;;;-8.80;99.90;;;;;;6160714;23;20073;-68
2022/12/14 18:58:02;;;;;;;21.90;7.85;;;-8.80;99.90;;;;;;6158753;23;20010;-68
2022/12/14 19:00:35;;;;;;;17.50;7.70;;;-8.80;99.90;;;;;;6160060;23;20009;-68
2022/12/14 19:03:03;;;;;;;14.98;7.32;;;-8.80;99.90;;;;;;6158762;23;20090;-68
2022/12/14 19:05:31;;;;;;;17.40;6.85;;;-8.80;99.90;;;;;;6160571;23;20033;-68
2022/12/14 19:07:59;;;;;;;15.45;8.00;;;-8.80;99.90;;;;;;6160719;23;20001;-69
2022/12/14 19:10:29;;;;;;;18.65;7.45;;;-8.80;99.90;;;;;;6160660;23;20377;-69
2022/12/14 19:12:57;;;;;;;20.33;8.23;;;-8.80;99.90;;;;;;6158898;23;20005;-68
2022/12/14 19:15:27;;;;;;;23.15;9.10;;;-8.80;99.90;;;;;;6158611;23;20432;-69
2022/12/14 19:17:55;;;;;;;16.67;8.05;;;-8.80;99.90;;;;;;6160007;23;20298;-69
2022/12/14 19:20:23;;;;;;;23.55;10.55;;;-8.80;99.90;;;;;;6158488;23;20005;-69
2022/12/14 19:22:50;;;;;;;17.92;8.73;;;-8.80;99.90;;;;;;6161022;23;20006;-70
2022/12/14 19:25:19;;;;;;;15.70;7.55;;;-8.80;99.90;;;;;;6162449;23;20008;-69
2022/12/14 19:27:50;;;;;;;17.55;7.75;;;-8.80;99.90;;;;;;6160633;23;20382;-70
2022/12/14 19:30:23;;;;;;;20.88;8.82;;;-8.80;99.90;;;;;;6162223;23;19998;-70
2022/12/14 19:32:53;;;;;;;15.35;7.50;;;-8.90;99.90;;;;;;6162071;23;20025;-69
2022/12/14 19:35:22;;;;;;;17.40;6.72;;;-9.00;99.90;;;;;;6161866;23;20033;-69
2022/12/14 19:37:50;;;;;;;15.63;7.88;;;-9.00;99.90;;;;;;6161857;23;20005;-70
2022/12/14 19:40:19;;;;;;;19.40;8.25;;;-9.00;99.90;;;;;;6162493;23;20002;-69
2022/12/14 19:42:47;;;;;;;18.20;7.38;;;-9.00;99.90;;;;;;6161740;23;20009;-69
2022/12/14 19:45:14;;;;;;;12.10;5.55;;;-9.00;99.90;;;;;;6160289;23;20009;-69
2022/12/14 19:47:42;;;;;;;16.58;7.45;;;-9.00;99.90;;;;;;6161671;23;20001;-69
2022/12/14 19:50:12;;;;;;;13.15;7.53;;;-9.00;99.90;;;;;;6161664;23;20453;-70
2022/12/14 19:52:40;;;;;;;15.18;6.72;;;-9.10;99.90;;;;;;6162372;23;20358;-70
2022/12/14 19:55:07;;;;;;;15.43;5.80;;;-9.10;99.90;;;;;;6161529;23;20028;-70
2022/12/14 19:57:36;;;;;;;16.55;6.75;;;-9.00;99.90;;;;;;6162673;23;20065;-70
2022/12/14 20:00:05;;;;;;;17.85;6.97;;;-9.00;99.90;;;;;;6162323;23;20017;-69
2022/12/14 20:02:32;;;;;;;22.08;7.93;;;-9.00;99.90;;;;;;6161581;23;20076;-70
2022/12/14 20:05:00;;;;;;;19.02;8.20;;;-9.00;99.90;;;;;;6161494;23;20006;-70
2022/12/14 20:07:27;;;;;;;16.92;8.02;;;-8.90;99.90;;;;;;6160342;23;20012;-70
2022/12/14 20:09:55;;;;;;;21.27;8.18;;;-9.00;99.90;;;;;;6162167;23;19998;-70
2022/12/14 20:12:22;;;;;;;17.88;8.05;;;-9.00;99.90;;;;;;6160212;23;20263;-70
2022/12/14 20:14:50;;;;;;;31.45;11.88;;;-8.90;99.90;;;;;;6161507;23;20008;-70
2022/12/14 20:17:17;;;;;;;34.75;12.88;;;-9.00;99.90;;;;;;6161360;23;20097;-70
2022/12/14 20:19:45;;;;;;;45.58;15.75;;;-9.00;99.90;;;;;;6161813;23;20029;-70
2022/12/14 20:22:13;;;;;;;44.15;15.88;;;-9.00;99.90;;;;;;6160098;23;20060;-70
2022/12/14 20:24:42;;;;;;;50.75;19.52;;;-9.10;99.90;;;;;;6159970;23;20283;-70
2022/12/14 20:27:09;;;;;;;35.10;13.45;;;-9.10;99.90;;;;;;6161165;23;20002;-70
2022/12/14 20:29:37;;;;;;;23.77;8.52;;;-9.10;99.90;;;;;;6161531;23;20008;-73
2022/12/14 20:32:05;;;;;;;14.68;7.10;;;-9.10;99.90;;;;;;6159777;23;20005;-70
2022/12/14 20:34:33;;;;;;;14.13;6.78;;;-9.10;99.90;;;;;;6161372;23;20001;-70
2022/12/14 20:37:00;;;;;;;17.58;7.53;;;-9.10;99.90;;;;;;6161282;23;20005;-70
2022/12/14 20:39:27;;;;;;;21.52;8.23;;;-9.20;99.90;;;;;;6162169;23;20029;-70
2022/12/14 20:41:55;;;;;;;25.23;9.90;;;-9.20;99.90;;;;;;6160219;23;20357;-70
2022/12/14 20:44:23;;;;;;;45.80;14.15;;;-9.30;99.90;;;;;;6159781;23;20286;-69
2022/12/14 20:46:50;;;;;;;104.18;27.55;;;-9.30;99.90;;;;;;6159816;23;20033;-70
2022/12/14 20:49:20;;;;;;;37.53;13.65;;;-9.30;99.90;;;;;;6161993;23;20002;-69
2022/12/14 20:51:48;;;;;;;50.20;15.20;;;-9.30;99.90;;;;;;6161125;23;20068;-69
2022/12/14 20:54:18;;;;;;;24.98;9.90;;;-9.30;99.90;;;;;;6161911;23;20005;-69
2022/12/14 20:56:46;;;;;;;17.63;8.85;;;-9.30;99.90;;;;;;6160979;23;19998;-69
2022/12/14 20:59:14;;;;;;;23.60;9.48;;;-9.30;99.90;;;;;;6159929;23;20121;-69
2022/12/14 21:01:42;;;;;;;30.17;8.60;;;-9.30;99.90;;;;;;6159642;23;20394;-70
2022/12/14 21:04:09;;;;;;;22.33;8.68;;;-9.30;99.90;;;;;;6161656;23;20001;-69
2022/12/14 21:06:38;;;;;;;19.75;8.07;;;-9.40;99.90;;;;;;6160335;23;20067;-70
2022/12/14 21:09:10;;;;;;;19.80;8.65;;;-9.40;99.90;;;;;;6160613;23;20366;-69
2022/12/14 21:14:37;;;;;;;20.58;8.65;;;-9.50;99.90;;;;;;6160952;23;20013;-69
2022/12/14 21:17:05;;;;;;;21.90;7.10;;;-9.50;99.90;;;;;;6160600;23;20009;-69
2022/12/14 21:19:34;;;;;;;15.90;7.47;;;-9.40;99.90;;;;;;6161165;23;20029;-69
2022/12/14 21:22:02;;;;;;;22.00;7.50;;;-9.40;99.90;;;;;;6161489;23;20028;-69
2022/12/14 21:24:30;;;;;;;23.65;9.63;;;-9.40;99.90;;;;;;6160737;23;20017;-69
2022/12/14 21:26:58;;;;;;;16.58;7.53;;;-9.50;99.90;;;;;;6161419;23;20004;-70
2022/12/14 21:29:26;;;;;;;23.83;9.13;;;-9.50;99.90;;;;;;6161513;23;20008;-69
2022/12/14 21:31:54;;;;;;;29.20;10.82;;;-9.60;99.90;;;;;;6160672;23;20024;-69
2022/12/14 21:34:22;;;;;;;25.23;9.77;;;-9.60;99.90;;;;;;6160761;23;20006;-69
2022/12/14 21:36:49;;;;;;;27.27;11.02;;;-9.60;99.90;;;;;;6160514;23;20092;-69
2022/12/14 21:39:18;;;;;;;28.17;11.05;;;-9.60;99.90;;;;;;6160835;23;20306;-69
2022/12/14 21:44:36;;;;;;;21.70;9.05;;;-9.40;99.90;;;;;;6160836;23;20013;-69
2022/12/14 21:47:08;;;;;;;35.47;13.95;;;-9.40;99.90;;;;;;6160424;23;20005;-69
2022/12/14 21:49:39;;;;;;;18.75;9.35;;;-9.40;99.90;;;;;;6160825;23;20004;-69
2022/12/14 21:52:08;;;;;;;24.77;10.48;;;-9.40;99.90;;;;;;6159339;23;20005;-69
2022/12/14 21:54:35;;;;;;;28.52;11.25;;;-9.50;99.90;;;;;;6161120;23;20012;-69
2022/12/14 21:59:49;;;;;;;22.50;8.60;;;-9.50;99.90;;;;;;6160505;23;20013;-69
2022/12/14 22:02:18;;;;;;;26.23;9.98;;;-9.60;99.90;;;;;;6160400;23;20006;-69
2022/12/14 22:04:45;;;;;;;22.05;9.23;;;-9.60;99.90;;;;;;6158999;23;20385;-70
2022/12/14 22:07:18;;;;;;;26.15;9.52;;;-9.60;99.90;;;;;;6161058;23;20002;-69
2022/12/14 22:09:46;;;;;;;21.73;10.27;;;-9.60;99.90;;;;;;6159040;23;20037;-69
2022/12/14 22:12:14;;;;;;;20.50;8.60;;;-9.60;99.90;;;;;;6160381;23;20294;-69
2022/12/14 22:14:41;;;;;;;25.10;9.98;;;-9.50;99.90;;;;;;6159121;23;20116;-69
2022/12/14 22:17:12;;;;;;;24.60;10.32;;;-9.50;99.90;;;;;;6160012;23;20025;-70
2022/12/14 22:19:39;;;;;;;26.42;10.75;;;-9.50;99.90;;;;;;6158659;23;20051;-69
2022/12/14 22:22:06;;;;;;;31.13;11.27;;;-9.50;99.90;;;;;;6160653;23;20009;-69
2022/12/14 22:24:34;;;;;;;33.35;11.40;;;-9.60;99.90;;;;;;6160201;23;20009;-69
2022/12/14 22:27:02;;;;;;;23.85;10.05;;;-9.60;99.90;;;;;;6160519;23;20371;-69
2022/12/14 22:29:29;;;;;;;18.50;9.00;;;-9.60;99.90;;;;;;6160225;23;20040;-69
2022/12/14 22:31:57;;;;;;;20.83;9.15;;;-9.60;99.90;;;;;;6160807;23;20002;-69
2022/12/14 22:34:24;;;;;;;121.90;23.40;;;-9.60;99.90;;;;;;6160836;23;20129;-69
2022/12/14 22:36:52;;;;;;;99.53;25.17;;;-9.60;99.90;;;;;;6160226;23;20011;-69
2022/12/14 22:39:19;;;;;;;96.28;22.92;;;-9.60;99.90;;;;;;6159091;23;20429;-69
2022/12/14 22:41:48;;;;;;;61.05;19.95;;;-9.60;99.90;;;;;;6160863;23;20036;-70
2022/12/14 22:44:16;;;;;;;37.40;14.25;;;-9.60;99.90;;;;;;6158804;23;20303;-69
2022/12/14 22:46:43;;;;;;;31.40;12.63;;;-9.70;99.90;;;;;;6160773;23;19998;-69
2022/12/14 22:49:16;;;;;;;30.27;11.57;;;-9.70;99.90;;;;;;6158942;23;20002;-70
2022/12/14 22:51:44;;;;;;;29.17;10.93;;;-9.70;99.90;;;;;;6160000;23;20002;-69
2022/12/14 22:54:23;;;;;;;31.63;10.93;;;-9.80;99.90;;;;;;6159642;23;20139;-69
2022/12/14 22:57:14;;;;;;;21.02;9.63;;;-9.80;99.90;;;;;;6159814;23;20001;-69
2022/12/14 22:59:44;;;;;;;21.95;9.20;;;-9.80;99.90;;;;;;6160788;23;20316;-69
2022/12/14 23:02:11;;;;;;;21.73;8.88;;;-9.80;99.90;;;;;;6160651;23;20052;-69
2022/12/14 23:04:39;;;;;;;17.70;8.23;;;-9.70;99.90;;;;;;6160593;23;20002;-69
2022/12/14 23:07:07;;;;;;;24.15;9.38;;;-9.70;99.90;;;;;;6160833;23;20090;-69
